Time;durP1;ratioP1;P1;durP2;ratioP2;P2;SDS_P1;SDS_P2;PMS_P1;PMS_P2;Temp;Humidity;BMP_temperature;BMP_pressure;BME280_temperature;BME280_humidity;BME280_pressure;Samples;Min_cycle;Max_cycle;Signal;HPM_P1;HPM_P2
2023/08/29 00:00:17;;;;;;;9.98;4.40;;;;;;;25.42;53.41;98396.41;7684175;32;39287;-86
2023/08/29 00:04:33;;;;;;;9.93;4.95;;;;;;;25.28;54.08;98404.81;7676882;32;39933;-85
2023/08/29 00:08:49;;;;;;;9.13;4.85;;;;;;;25.28;54.27;98418.75;7657646;32;37991;-85
2023/08/29 00:13:06;;;;;;;11.85;5.28;;;;;;;25.20;54.39;98436.66;7657583;32;37102;-86
2023/08/29 00:17:23;;;;;;;15.25;5.75;;;;;;;24.48;58.45;98450.72;7657243;32;40122;-86
2023/08/29 00:21:39;;;;;;;10.32;5.47;;;;;;;24.46;59.64;98467.03;7657301;32;39769;-86
2023/08/29 00:25:55;;;;;;;9.77;5.82;;;;;;;23.95;61.51;98483.63;7901656;27;37941;-86
2023/08/29 00:30:12;;;;;;;14.13;5.78;;;;;;;23.72;62.21;98488.72;7709473;32;37852;-85
2023/08/29 00:34:29;;;;;;;14.07;5.85;;;;;;;23.53;62.26;98471.16;7713269;32;40204;-86
2023/08/29 00:38:45;;;;;;;9.90;6.15;;;;;;;23.82;61.12;98476.84;7713260;32;40854;-86
2023/08/29 00:43:05;;;;;;;13.73;5.90;;;;;;;24.10;59.98;98497.59;7713181;32;38658;-86
2023/08/29 00:47:21;;;;;;;13.02;5.90;;;;;;;24.40;58.98;98504.81;7713180;32;37895;-86
2023/08/29 00:51:39;;;;;;;12.40;5.85;;;;;;;24.28;59.24;98472.56;7713067;32;40124;-86
2023/08/29 00:55:55;;;;;;;10.57;5.70;;;;;;;24.21;59.15;98469.78;7711851;32;40896;-86
2023/08/29 01:00:12;;;;;;;12.63;5.55;;;;;;;24.25;59.24;98488.09;7711844;32;37986;-85
2023/08/29 01:04:28;;;;;;;12.20;6.00;;;;;;;24.32;59.49;98507.59;7712922;32;37150;-86
2023/08/29 01:08:46;;;;;;;10.50;6.12;;;;;;;24.37;59.55;98514.75;7712868;32;39603;-86
2023/08/29 01:13:28;;;;;;;11.05;5.57;;;;;;;24.16;60.30;98548.91;7712810;32;40829;-85
2023/08/29 01:17:58;;;;;;;9.57;5.35;;;;;;;24.05;60.28;98536.97;7711190;32;38708;-85
2023/08/29 01:22:31;;;;;;;10.60;5.20;;;;;;;24.18;60.13;98521.47;7711695;32;38234;-85
2023/08/29 01:26:48;;;;;;;9.90;5.47;;;;;;;24.29;59.70;98522.28;7685906;32;40100;-85
2023/08/29 01:31:06;;;;;;;8.50;5.28;;;;;;;24.52;58.74;98521.13;7684820;32;39655;-85
2023/08/29 01:35:23;;;;;;;13.65;6.15;;;;;;;24.03;60.61;98545.69;7685904;32;37708;-85
2023/08/29 01:39:39;;;;;;;13.52;5.68;;;;;;;23.78;61.76;98570.59;7685878;32;37474;-86
2023/08/29 01:43:55;;;;;;;12.57;5.82;;;;;;;24.10;60.24;98567.19;7685134;32;39274;-85
2023/08/29 01:48:12;;;;;;;9.70;5.93;;;;;;;24.17;59.85;98545.72;7686359;32;40718;-85
2023/08/29 01:52:28;;;;;;;9.77;5.53;;;;;;;24.18;59.34;98502.78;7685616;32;38495;-85
2023/08/29 01:56:45;;;;;;;12.00;6.10;;;;;;;24.40;58.24;98468.59;7686495;32;37867;-85
2023/08/29 02:01:02;;;;;;;14.63;5.87;;;;;;;24.23;58.63;98464.59;7711030;32;39303;-85
2023/08/29 02:05:39;;;;;;;12.75;5.50;;;;;;;24.31;58.10;98458.66;7711226;32;39848;-85
2023/08/29 02:09:55;;;;;;;11.93;5.82;;;;;;;24.23;58.38;98468.16;7710146;32;37779;-86
2023/08/29 02:14:12;;;;;;;10.07;5.80;;;;;;;24.13;58.66;98468.97;7685543;32;37203;-84
2023/08/29 02:18:28;;;;;;;11.43;5.50;;;;;;;24.20;58.37;98466.22;7685488;32;39969;-84
2023/08/29 02:22:44;;;;;;;9.95;5.32;;;;;;;24.08;58.55;98466.59;7685446;32;40561;-85
2023/08/29 02:27:01;;;;;;;9.50;5.97;;;;;;;24.30;57.81;98470.19;7685149;32;38730;-84
2023/08/29 02:31:17;;;;;;;13.70;5.95;;;;;;;24.28;57.90;98467.78;7685391;32;37270;-86
2023/08/29 02:35:33;;;;;;;12.23;6.10;;;;;;;24.13;58.55;98466.19;7685309;32;40110;-85
2023/08/29 02:39:50;;;;;;;9.63;5.70;;;;;;;24.38;57.73;98455.84;7685286;32;40168;-85
2023/08/29 02:44:06;;;;;;;11.98;5.75;;;;;;;24.36;57.89;98443.53;7685042;32;38114;-84
2023/08/29 02:48:23;;;;;;;8.75;5.55;;;;;;;24.50;57.47;98409.31;7693961;32;37881;-85
2023/08/29 02:52:40;;;;;;;10.70;5.90;;;;;;;24.33;57.80;98420.06;7711798;32;39228;-85
2023/08/29 02:56:57;;;;;;;10.38;5.68;;;;;;;24.34;57.75;98420.88;7711652;32;39896;-85
2023/08/29 03:01:13;;;;;;;9.40;5.70;;;;;;;24.38;57.42;98399.38;7711499;32;38925;-85
2023/08/29 03:05:30;;;;;;;11.43;5.65;;;;;;;24.28;57.68;98409.31;7711602;32;37130;-85
2023/08/29 03:09:46;;;;;;;9.02;5.40;;;;;;;24.33;57.51;98403.34;7711513;32;39053;-85
2023/08/29 03:14:03;;;;;;;11.27;5.85;;;;;;;24.42;57.24;98397.38;7711453;32;39861;-85
2023/08/29 03:18:20;;;;;;;11.65;5.57;;;;;;;24.43;57.04;98398.97;7711418;32;38782;-85
2023/08/29 03:22:36;;;;;;;10.38;5.85;;;;;;;24.35;57.22;98409.34;7711404;32;37038;-85
2023/08/29 03:26:52;;;;;;;10.85;5.90;;;;;;;24.38;56.94;98408.50;7689903;32;39314;-84
2023/08/29 03:31:10;;;;;;;9.43;5.85;;;;;;;24.43;56.75;98406.53;7683438;32;40167;-85
2023/08/29 03:35:26;;;;;;;14.02;5.75;;;;;;;24.37;56.93;98412.50;7684591;32;37611;-85
2023/08/29 03:39:43;;;;;;;9.90;5.32;;;;;;;24.37;56.90;98423.66;7684508;32;37915;-85
2023/08/29 03:43:59;;;;;;;10.75;5.97;;;;;;;24.21;57.35;98414.88;7709918;32;40114;-85
2023/08/29 03:48:16;;;;;;;11.12;5.68;;;;;;;24.25;57.25;98423.22;7711011;32;40764;-85
2023/08/29 03:52:44;;;;;;;11.65;5.57;;;;;;;24.29;56.82;98430.41;7710776;32;37906;-86
2023/08/29 03:57:00;;;;;;;9.00;5.30;;;;;;;24.27;57.06;98413.31;7710934;32;37800;-85
2023/08/29 04:01:19;;;;;;;10.13;5.65;;;;;;;24.50;56.20;98400.97;7710775;32;39284;-85
2023/08/29 04:05:36;;;;;;;10.02;5.45;;;;;;;24.26;56.22;98392.22;7710241;32;40092;-85
2023/08/29 04:09:53;;;;;;;14.02;6.18;;;;;;;24.28;56.05;98386.25;7710487;32;38052;-86
2023/08/29 04:14:09;;;;;;;12.95;5.18;;;;;;;24.33;56.07;98400.56;7710484;32;38098;-85
2023/08/29 04:18:26;;;;;;;10.73;5.00;;;;;;;24.71;55.08;98383.44;7710642;32;40173;-85
2023/08/29 04:22:42;;;;;;;10.27;5.43;;;;;;;24.17;56.86;98405.75;7710322;32;40631;-85
2023/08/29 04:26:58;;;;;;;11.75;4.85;;;;;;;23.96;58.00;98400.97;7709633;32;37902;-85
2023/08/29 04:31:17;;;;;;;10.95;5.40;;;;;;;24.11;57.21;98407.31;7710026;32;37921;-84
2023/08/29 04:35:34;;;;;;;10.27;5.55;;;;;;;24.26;56.54;98422.06;7700074;32;38383;-85
2023/08/29 04:39:50;;;;;;;10.63;5.87;;;;;;;24.15;57.29;98435.97;7683300;32;40777;-83
2023/08/29 04:44:07;;;;;;;9.07;5.47;;;;;;;24.33;57.29;98445.13;7683080;32;37843;-82
2023/08/29 04:48:23;;;;;;;10.93;5.40;;;;;;;24.55;56.77;98456.31;7683052;32;37159;-84
2023/08/29 04:52:39;;;;;;;10.18;5.90;;;;;;;24.76;56.72;98449.13;7682829;32;38976;-83
2023/08/29 04:56:56;;;;;;;9.20;5.18;;;;;;;24.51;57.85;98453.50;7682843;32;40136;-83
2023/08/29 05:01:13;;;;;;;12.98;5.35;;;;;;;24.89;56.64;98444.72;7682730;32;38812;-83
2023/08/29 05:05:29;;;;;;;10.40;5.45;;;;;;;24.65;57.53;98449.16;7682708;32;37284;-84
2023/08/29 05:09:46;;;;;;;13.20;5.85;;;;;;;24.67;57.69;98458.69;7682508;32;39370;-84
2023/08/29 05:14:03;;;;;;;16.50;5.57;;;;;;;24.32;58.80;98474.16;7682453;32;40041;-78
2023/08/29 05:18:19;;;;;;;12.75;5.43;;;;;;;24.59;58.20;98470.22;7684295;32;37901;-75
2023/08/29 05:22:35;;;;;;;12.82;5.70;;;;;;;24.91;57.29;98467.41;7686086;32;37869;-68
2023/08/29 05:26:52;;;;;;;11.35;5.10;;;;;;;25.05;56.80;98472.97;7685778;32;40178;-69
2023/08/29 05:31:08;;;;;;;11.43;5.25;;;;;;;25.20;56.27;98458.97;7711710;32;40724;-69
2023/08/29 05:35:24;;;;;;;8.82;5.45;;;;;;;25.15;56.42;98453.81;7701472;32;38101;-69
2023/08/29 05:39:41;;;;;;;13.85;6.12;;;;;;;24.91;57.16;98447.91;7690401;32;37384;-69
2023/08/29 05:43:57;;;;;;;8.13;5.50;;;;;;;25.06;56.76;98457.84;7712509;32;40007;-69
2023/08/29 05:48:13;;;;;;;11.50;5.45;;;;;;;24.72;57.55;98466.63;7712369;32;39947;-69
2023/08/29 05:52:30;;;;;;;12.77;5.12;;;;;;;24.96;56.70;98464.22;7712248;32;37641;-69
2023/08/29 05:56:46;;;;;;;10.30;5.07;;;;;;;24.95;57.02;98462.63;7711708;32;36910;-69
2023/08/29 06:01:06;;;;;;;11.50;5.62;;;;;;;25.24;56.73;98457.78;7685676;32;38853;-71
2023/08/29 06:05:23;;;;;;;13.80;5.68;;;;;;;25.25;56.72;98451.03;7690025;32;39685;-69
2023/08/29 06:09:39;;;;;;;11.55;5.60;;;;;;;25.26;56.85;98466.56;7713758;32;37938;-70
2023/08/29 06:13:55;;;;;;;9.55;5.45;;;;;;;25.49;55.88;98462.50;7712105;32;37812;-70
2023/08/29 06:18:12;;;;;;;10.57;5.00;;;;;;;25.52;55.49;98461.69;7712013;32;39399;-70
2023/08/29 06:22:29;;;;;;;10.05;4.53;;;;;;;25.97;54.11;98447.13;7711996;32;39750;-70
2023/08/29 06:26:45;;;;;;;10.55;5.25;;;;;;;26.14;53.40;98451.81;7705162;32;38103;-69
2023/08/29 06:31:05;;;;;;;12.20;5.70;;;;;;;26.22;52.59;98458.94;7710447;32;37089;-69
2023/08/29 06:35:23;;;;;;;10.25;6.00;;;;;;;26.13;53.31;98461.41;7711162;32;40115;-69
2023/08/29 06:39:40;;;;;;;10.73;5.62;;;;;;;25.44;56.26;98466.50;7711145;32;39978;-69
2023/08/29 06:43:56;;;;;;;10.68;5.30;;;;;;;25.17;56.85;98468.16;7711227;32;37685;-69
2023/08/29 06:48:12;;;;;;;11.52;5.40;;;;;;;25.51;56.01;98487.19;7710787;32;36918;-69
2023/08/29 06:52:28;;;;;;;15.88;6.43;;;;;;;25.68;56.00;98473.19;7710491;32;39336;-69
2023/08/29 06:56:45;;;;;;;11.57;5.60;;;;;;;25.07;58.14;98492.87;7710215;32;40844;-70
2023/08/29 07:01:01;;;;;;;12.82;5.60;;;;;;;25.14;58.20;98491.28;7702950;32;38824;-69
2023/08/29 07:05:17;;;;;;;13.15;6.15;;;;;;;25.14;58.62;98547.81;7684945;32;37328;-71
2023/08/29 07:09:34;;;;;;;13.85;6.45;;;;;;;25.55;58.82;98527.06;7700587;32;39514;-71
2023/08/29 07:13:50;;;;;;;21.40;6.30;;;;;;;25.51;60.02;98520.69;7707183;32;39968;-74
2023/08/29 07:18:07;;;;;;;15.35;5.37;;;;;;;25.36;61.14;98570.94;7699655;32;37913;-69
2023/08/29 07:22:24;;;;;;;11.93;4.47;;;;;;;24.90;57.49;98588.47;7723220;32;37156;-71
2023/08/29 07:26:40;;;;;;;11.68;4.35;;;;;;;24.80;54.22;98619.91;7697562;32;40690;-75
2023/08/29 07:30:57;;;;;;;14.35;5.15;;;;;;;24.64;53.26;98635.00;7684537;32;39843;-71
2023/08/29 07:35:16;;;;;;;13.73;4.65;;;;;;;24.63;55.60;98624.25;7684725;32;37673;-76
2023/08/29 07:39:32;;;;;;;9.98;4.50;;;;;;;23.94;57.72;98646.25;7708955;32;37186;-72
2023/08/29 07:43:48;;;;;;;8.63;4.47;;;;;;;23.77;55.66;98649.72;7684356;32;39086;-72
2023/08/29 07:48:05;;;;;;;9.25;4.80;;;;;;;23.46;56.99;98654.69;7685183;32;40855;-70
2023/08/29 07:52:22;;;;;;;13.60;5.30;;;;;;;23.65;57.55;98650.84;7684061;32;37987;-70
2023/08/29 07:56:38;;;;;;;14.35;5.60;;;;;;;23.67;59.40;98625.41;7700164;32;36952;-69
2023/08/29 08:00:55;;;;;;;10.45;5.12;;;;;;;23.74;60.53;98598.41;7737440;32;39876;-70
2023/08/29 08:05:15;;;;;;;11.93;5.53;;;;;;;23.77;60.67;98586.50;7723645;32;40982;-71
2023/08/29 08:09:32;;;;;;;14.98;5.45;;;;;;;24.02;60.44;98573.94;7710442;32;37903;-71
2023/08/29 08:13:48;;;;;;;13.40;5.15;;;;;;;23.96;60.95;98560.37;7712995;32;37177;-70
2023/08/29 08:18:04;;;;;;;12.90;5.40;;;;;;;24.03;60.98;98570.75;7707415;32;39280;-67
2023/08/29 08:22:23;;;;;;;9.68;5.25;;;;;;;23.97;60.73;98567.56;7710075;32;42047;-69
2023/08/29 08:26:39;;;;;;;15.52;5.60;;;;;;;23.93;61.03;98579.84;7690352;32;38687;-82
2023/08/29 08:30:55;;;;;;;15.35;5.75;;;;;;;23.93;61.39;98589.00;7727062;32;38092;-69
2023/08/29 08:35:12;;;;;;;11.30;5.43;;;;;;;23.97;60.63;98622.41;7709994;32;40148;-81
2023/08/29 08:39:31;;;;;;;11.25;4.97;;;;;;;23.67;60.72;98628.97;7709329;32;39586;-83
2023/08/29 08:43:48;;;;;;;14.95;5.70;;;;;;;23.79;60.83;98639.00;7695050;32;37852;-81
2023/08/29 08:48:04;;;;;;;13.82;5.15;;;;;;;23.72;60.63;98647.31;7694926;32;37056;-82
2023/08/29 08:52:21;;;;;;;9.43;5.40;;;;;;;23.65;61.36;98661.16;7704196;32;39286;-82
2023/08/29 08:56:38;;;;;;;16.15;5.95;;;;;;;23.77;61.62;98658.06;7694763;32;40742;-85
2023/08/29 09:00:55;;;;;;;13.82;6.35;;;;;;;23.56;62.39;98673.44;7701689;32;38444;-84
2023/08/29 09:05:11;;;;;;;13.68;5.70;;;;;;;23.39;63.21;98677.66;7713646;32;37114;-83
2023/08/29 09:09:27;;;;;;;12.98;6.45;;;;;;;23.31;63.60;98686.34;7712744;32;40097;-84
2023/08/29 09:13:51;;;;;;;11.60;6.35;;;;;;;23.27;64.20;98682.72;7691704;32;40844;-84
2023/08/29 09:18:13;;;;;;;12.02;6.07;;;;;;;23.30;64.15;98679.97;7684903;32;38600;-83
2023/08/29 09:22:31;;;;;;;12.65;5.55;;;;;;;23.17;64.28;98676.69;7686049;32;37014;-83
2023/08/29 09:26:47;;;;;;;15.00;6.05;;;;;;;23.17;64.10;98687.78;7685938;32;40287;-84
2023/08/29 09:31:10;;;;;;;13.38;5.00;;;;;;;22.64;64.34;98688.03;7685753;32;39890;-84
2023/08/29 09:35:27;;;;;;;15.15;6.20;;;;;;;22.81;61.67;98679.09;7684665;32;38678;-83
2023/08/29 09:39:46;;;;;;;13.07;6.10;;;;;;;22.50;64.54;98661.69;7718753;32;37829;-84
2023/08/29 09:44:10;;;;;;;15.02;6.25;;;;;;;22.49;64.87;98629.56;7712521;32;39159;-84
2023/08/29 09:48:27;;;;;;;11.68;5.43;;;;;;;22.76;64.73;98612.75;7702720;32;39585;-81
2023/08/29 09:52:45;;;;;;;15.75;6.43;;;;;;;22.86;65.04;98606.50;7705745;32;38438;-82
2023/08/29 09:57:05;;;;;;;13.10;5.47;;;;;;;22.54;65.20;98616.50;7722825;32;38148;-82
2023/08/29 10:01:22;;;;;;;14.85;6.15;;;;;;;22.72;65.16;98622.25;7712441;32;39356;-82
2023/08/29 10:05:44;;;;;;;11.95;5.87;;;;;;;23.10;63.90;98604.34;7705555;32;40017;-83
2023/08/29 10:10:01;;;;;;;17.47;6.33;;;;;;;22.83;65.25;98585.03;7699386;32;37957;-81
2023/08/29 10:14:18;;;;;;;15.68;6.05;;;;;;;22.66;64.92;98574.56;7709526;32;37139;-82
2023/08/29 10:18:36;;;;;;;11.50;6.10;;;;;;;22.89;63.19;98560.50;7706773;32;39837;-82
2023/08/29 10:22:52;;;;;;;12.68;6.22;;;;;;;22.72;64.26;98572.25;7688530;32;40213;-82
2023/08/29 10:27:10;;;;;;;16.23;6.00;;;;;;;22.88;63.95;98558.88;7685934;32;38026;-82
2023/08/29 10:31:26;;;;;;;12.10;6.00;;;;;;;22.86;64.40;98573.16;7707775;32;36957;-81
2023/08/29 10:35:46;;;;;;;13.57;6.60;;;;;;;22.71;65.44;98609.53;7697279;32;40098;-82
2023/08/29 10:40:14;;;;;;;13.82;6.95;;;;;;;22.76;65.56;98618.31;7685305;32;40026;-81
2023/08/29 10:44:36;;;;;;;10.48;6.22;;;;;;;22.80;65.64;98607.22;7685141;32;38002;-81
2023/08/29 10:48:57;;;;;;;22.35;13.05;;;;;;;22.74;65.42;98614.31;7685289;32;37357;-81
2023/08/29 10:53:20;;;;;;;15.95;11.32;;;;;;;22.63;65.50;98642.00;7685128;32;39734;-81
2023/08/29 10:57:36;;;;;;;13.90;6.45;;;;;;;22.84;64.92;98633.06;7685019;32;39668;-83
2023/08/29 11:02:12;;;;;;;16.27;7.18;;;;;;;22.73;65.38;98624.62;7684894;32;38785;-84
2023/08/29 11:06:56;;;;;;;17.15;6.82;;;;;;;22.75;65.87;98630.63;7685007;32;38151;-83
2023/08/29 11:11:20;;;;;;;10.70;5.93;;;;;;;22.72;65.81;98613.91;7684893;32;40167;-82
2023/08/29 11:16:00;;;;;;;12.27;6.30;;;;;;;22.94;65.70;98587.91;7684841;32;40758;-83
2023/08/29 11:20:17;;;;;;;14.32;6.07;;;;;;;23.30;65.56;98584.63;7697823;32;38465;-83
2023/08/29 11:24:35;;;;;;;13.98;6.55;;;;;;;23.51;65.85;98561.72;7696602;32;37433;-82
2023/08/29 11:28:53;;;;;;;10.27;5.28;;;;;;;23.94;65.34;98546.06;7694001;32;40129;-83
2023/08/29 11:33:09;;;;;;;17.55;6.40;;;;;;;24.29;65.24;98539.00;7696271;32;40043;-82
2023/08/29 11:37:29;;;;;;;12.57;5.57;;;;;;;24.97;63.54;98541.06;7697239;32;37983;-83
2023/08/29 11:41:47;;;;;;;12.50;4.68;;;;;;;24.86;64.39;98531.94;7701693;32;37176;-84
2023/08/29 11:46:31;;;;;;;21.02;5.80;;;;;;;25.81;61.63;98526.56;7692793;32;39649;-83
2023/08/29 11:50:47;;;;;;;11.32;4.72;;;;;;;26.18;58.74;98524.41;7700737;32;40775;-83
2023/08/29 11:55:08;;;;;;;7.80;4.45;;;;;;;26.78;58.07;98505.63;7693875;32;37890;-83
2023/08/29 11:59:24;;;;;;;11.07;5.93;;;;;;;27.23;55.26;98491.63;7694923;32;36862;-84
2023/08/29 12:03:41;;;;;;;8.50;3.80;;;;;;;27.11;54.86;98492.16;7695738;32;39482;-83
2023/08/29 12:07:58;;;;;;;9.02;4.28;;;;;;;27.11;54.59;98511.72;7696341;32;39050;-84
2023/08/29 12:12:35;;;;;;;9.25;4.55;;;;;;;27.25;52.83;98511.59;7696042;32;37595;-84
2023/08/29 12:16:55;;;;;;;8.07;3.87;;;;;;;27.58;50.61;98506.47;7695629;32;37908;-84
2023/08/29 12:21:16;;;;;;;7.57;4.12;;;;;;;27.56;51.18;98514.47;7683850;32;40167;-83
2023/08/29 12:25:32;;;;;;;9.77;3.60;;;;;;;28.07;53.55;98507.06;7693113;32;39954;-84
2023/08/29 12:29:50;;;;;;;8.90;3.50;;;;;;;28.27;50.98;98517.59;7696581;32;38426;-84
2023/08/29 12:34:11;;;;;;;8.02;3.92;;;;;;;28.87;48.39;98522.69;7696290;32;36805;-84
2023/08/29 12:38:34;;;;;;;10.05;3.33;;;;;;;28.73;49.82;98527.31;7683422;32;40105;-83
2023/08/29 12:42:51;;;;;;;6.53;3.33;;;;;;;29.09;47.48;98525.91;7702724;32;39738;-84
2023/08/29 12:47:08;;;;;;;8.75;3.28;;;;;;;29.17;45.92;98539.41;7694336;32;37940;-83
2023/08/29 12:51:24;;;;;;;8.23;3.28;;;;;;;29.32;43.63;98542.78;7683168;32;36968;-84
2023/08/29 12:55:41;;;;;;;7.72;3.33;;;;;;;29.86;45.40;98543.75;7682998;32;40117;-82
2023/08/29 12:59:57;;;;;;;9.65;3.83;;;;;;;29.94;44.24;98546.00;7682918;32;40842;-83
2023/08/29 13:04:13;;;;;;;6.72;3.80;;;;;;;30.31;44.94;98534.75;7682663;32;39502;-82
2023/08/29 13:08:30;;;;;;;8.82;4.47;;;;;;;29.77;43.47;98531.09;7682922;32;37121;-82
2023/08/29 13:12:46;;;;;;;13.27;6.32;;;;;;;29.57;42.83;98544.31;7690353;32;40201;-86
2023/08/29 13:17:04;;;;;;;9.90;4.93;;;;;;;29.58;44.39;98535.44;7708948;32;39365;-85
2023/08/29 13:21:20;;;;;;;11.45;6.12;;;;;;;29.11;46.25;98541.09;7708855;32;38808;-85
2023/08/29 13:25:36;;;;;;;10.15;3.97;;;;;;;29.12;45.80;98531.47;7708701;32;37665;-85
2023/08/29 13:29:53;;;;;;;8.73;3.90;;;;;;;29.15;45.93;98519.41;7707465;32;40181;-82
2023/08/29 13:34:09;;;;;;;14.90;4.95;;;;;;;29.62;44.43;98526.16;7708318;32;40011;-84
2023/08/29 13:38:26;;;;;;;8.57;4.03;;;;;;;29.25;44.96;98528.06;7710927;32;38079;-85
2023/08/29 13:42:42;;;;;;;11.63;5.00;;;;;;;28.98;46.06;98526.12;7693305;32;36843;-84
2023/08/29 13:46:58;;;;;;;10.70;4.30;;;;;;;28.95;46.98;98533.34;7684288;32;39833;-84
2023/08/29 13:51:15;;;;;;;9.43;4.87;;;;;;;28.87;45.40;98519.88;7685253;32;40833;-84
2023/08/29 13:55:31;;;;;;;9.30;4.28;;;;;;;28.72;46.64;98522.94;7685080;32;38001;-83
2023/08/29 13:59:48;;;;;;;8.48;3.95;;;;;;;28.70;46.34;98521.75;7685291;32;38550;-83
2023/08/29 14:04:04;;;;;;;16.35;7.80;;;;;;;28.48;47.71;98522.87;7684851;32;39095;-84
2023/08/29 14:08:21;;;;;;;10.32;4.53;;;;;;;28.74;46.03;98514.09;7685789;32;40876;-85
2023/08/29 14:12:38;;;;;;;9.55;5.05;;;;;;;28.44;48.33;98515.72;7684808;32;38583;-84
2023/08/29 14:16:54;;;;;;;8.85;3.90;;;;;;;28.58;46.92;98506.31;7685408;32;37065;-84
2023/08/29 14:21:11;;;;;;;8.88;4.10;;;;;;;28.60;46.18;98513.09;7685065;32;39306;-83
2023/08/29 14:25:28;;;;;;;7.75;3.62;;;;;;;28.65;46.18;98503.44;7684379;32;40660;-83
2023/08/29 14:29:45;;;;;;;8.15;3.83;;;;;;;28.66;46.28;98502.19;7685426;32;38086;-84
2023/08/29 14:34:01;;;;;;;8.68;3.58;;;;;;;28.42;47.31;98492.94;7684443;32;37063;-84
2023/08/29 14:38:18;;;;;;;12.20;4.12;;;;;;;28.51;45.96;98495.22;7685294;32;39309;-84
2023/08/29 14:42:37;;;;;;;8.40;3.72;;;;;;;28.63;47.10;98498.25;7684746;32;41295;-84
2023/08/29 14:46:53;;;;;;;7.68;3.87;;;;;;;28.93;45.46;98490.13;7684763;32;38106;-81
2023/08/29 14:51:10;;;;;;;7.53;3.72;;;;;;;28.58;46.92;98487.53;7684528;32;37034;-84
2023/08/29 14:55:26;;;;;;;8.10;3.15;;;;;;;27.89;47.09;98482.06;7684145;32;40188;-84
2023/08/29 14:59:44;;;;;;;7.45;3.40;;;;;;;28.40;46.15;98470.94;7685066;32;39965;-84
2023/08/29 15:04:00;;;;;;;6.95;3.50;;;;;;;28.68;45.22;98468.13;7684562;32;38494;-84
2023/08/29 15:08:17;;;;;;;7.05;3.50;;;;;;;28.37;47.02;98483.03;7684510;32;37808;-83
2023/08/29 15:12:35;;;;;;;7.35;3.40;;;;;;;28.35;45.68;98473.44;7684385;32;39394;-84
2023/08/29 15:16:51;;;;;;;7.95;3.47;;;;;;;28.27;45.46;98479.16;7683341;32;41015;-83
2023/08/29 15:21:08;;;;;;;14.90;3.22;;;;;;;28.00;45.98;98467.16;7684359;32;38642;-83
2023/08/29 15:25:25;;;;;;;8.27;3.45;;;;;;;27.58;47.06;98477.66;7683667;32;37325;-84
2023/08/29 15:29:42;;;;;;;6.80;3.12;;;;;;;27.39;46.56;98482.69;7684729;32;40126;-84
2023/08/29 15:33:58;;;;;;;6.90;3.53;;;;;;;27.25;48.04;98471.63;7687368;32;39748;-83
2023/08/29 15:38:15;;;;;;;5.75;3.08;;;;;;;27.35;47.71;98459.56;7710687;32;38640;-82
2023/08/29 15:42:31;;;;;;;7.37;3.22;;;;;;;27.48;47.97;98465.41;7710539;32;37277;-69
2023/08/29 15:46:48;;;;;;;5.97;2.72;;;;;;;27.25;48.24;98460.44;7710267;32;39314;-70
2023/08/29 15:51:04;;;;;;;7.43;3.45;;;;;;;27.26;47.85;98457.22;7711060;32;39560;-83
2023/08/29 15:55:22;;;;;;;5.57;2.87;;;;;;;27.45;48.33;98450.25;7710394;32;37988;-83
2023/08/29 15:59:39;;;;;;;6.40;2.85;;;;;;;27.65;46.89;98442.00;7710142;32;37818;-84
2023/08/29 16:03:55;;;;;;;5.80;3.10;;;;;;;27.67;47.84;98442.38;7709561;32;37868;-84
2023/08/29 16:08:12;;;;;;;6.25;2.90;;;;;;;27.81;47.10;98440.59;7710482;32;40721;-84
2023/08/29 16:12:31;;;;;;;7.37;3.00;;;;;;;27.52;48.36;98429.78;7710100;32;38011;-84
2023/08/29 16:16:48;;;;;;;5.68;2.80;;;;;;;27.61;47.58;98420.84;7710074;32;37135;-83
2023/08/29 16:21:05;;;;;;;6.40;2.78;;;;;;;27.47;47.56;98410.63;7710254;32;39101;-83
2023/08/29 16:25:23;;;;;;;4.78;2.78;;;;;;;27.06;47.87;98409.53;7709706;32;40008;-84
2023/08/29 16:29:40;;;;;;;6.40;2.83;;;;;;;27.13;48.23;98405.81;7709751;32;37880;-83
2023/08/29 16:33:56;;;;;;;6.03;3.28;;;;;;;27.07;48.68;98410.31;7709577;32;37695;-83
2023/08/29 16:38:13;;;;;;;11.18;4.45;;;;;;;26.79;48.66;98393.41;7709662;32;39010;-83
2023/08/29 16:42:32;;;;;;;13.07;5.95;;;;;;;26.65;49.47;98384.38;7709378;32;39934;-83
2023/08/29 16:46:52;;;;;;;8.13;3.75;;;;;;;26.26;51.08;98391.88;7709451;32;37894;-84
2023/08/29 16:51:09;;;;;;;5.32;3.15;;;;;;;26.41;50.01;98392.56;7709137;32;37776;-84
2023/08/29 16:55:25;;;;;;;9.02;3.58;;;;;;;26.26;49.39;98408.63;7708996;32;40158;-84
2023/08/29 16:59:58;;;;;;;5.87;2.62;;;;;;;25.95;50.81;98410.47;7708907;32;39839;-84
2023/08/29 17:04:15;;;;;;;5.22;2.72;;;;;;;25.68;51.09;98409.00;7707459;32;40014;-84
2023/08/29 17:08:31;;;;;;;7.93;3.30;;;;;;;25.78;51.34;98406.56;7708847;32;38016;-84
2023/08/29 17:12:47;;;;;;;6.43;3.15;;;;;;;25.51;52.57;98421.06;7710287;32;40084;-83
2023/08/29 17:17:04;;;;;;;5.80;3.25;;;;;;;25.34;53.64;98433.88;7712436;32;40127;-83
2023/08/29 17:21:21;;;;;;;5.93;3.03;;;;;;;25.18;54.38;98436.28;7712391;32;38050;-83
2023/08/29 17:25:38;;;;;;;6.28;3.22;;;;;;;24.93;54.68;98431.56;7712117;32;37107;-84
2023/08/29 17:29:54;;;;;;;10.00;3.47;;;;;;;24.88;54.91;98441.13;7712398;32;39140;-83
2023/08/29 17:34:11;;;;;;;9.60;3.50;;;;;;;24.74;55.58;98443.94;7711981;32;40841;-83
2023/08/29 17:38:27;;;;;;;11.05;3.87;;;;;;;24.48;56.11;98448.72;7712295;32;38637;-83
2023/08/29 17:42:44;;;;;;;7.57;3.17;;;;;;;24.56;55.78;98449.53;7712010;32;37977;-84
2023/08/29 17:47:01;;;;;;;6.95;3.53;;;;;;;24.41;56.11;98451.50;7712077;32;39017;-84
2023/08/29 17:51:17;;;;;;;8.05;3.30;;;;;;;24.31;56.71;98457.84;7712549;32;40125;-84
2023/08/29 17:55:35;;;;;;;8.75;3.60;;;;;;;24.25;56.55;98463.03;7712165;32;38701;-83
2023/08/29 17:59:54;;;;;;;7.25;3.58;;;;;;;24.41;56.10;98461.84;7712395;32;36090;-84
2023/08/29 18:04:11;;;;;;;7.20;3.03;;;;;;;24.00;57.43;98449.84;7712515;32;39413;-86
2023/08/29 18:08:28;;;;;;;10.65;3.47;;;;;;;24.08;57.02;98461.81;7697082;32;40790;-83
2023/08/29 18:12:45;;;;;;;6.78;3.60;;;;;;;24.02;57.21;98476.50;7713387;32;38451;-82
2023/08/29 18:17:02;;;;;;;8.45;3.70;;;;;;;23.91;57.40;98480.06;7705324;32;37138;-83
2023/08/29 18:21:19;;;;;;;10.68;4.05;;;;;;;24.02;56.79;98482.84;7711358;32;40107;-82
2023/08/29 18:25:35;;;;;;;7.07;3.75;;;;;;;23.88;57.27;98489.19;7706064;32;40720;-83
2023/08/29 18:29:53;;;;;;;6.12;3.37;;;;;;;23.84;56.98;98499.53;7683620;32;38003;-82
2023/08/29 18:34:09;;;;;;;7.87;3.28;;;;;;;23.66;57.42;98504.19;7684445;32;36804;-84
2023/08/29 18:38:27;;;;;;;8.00;3.37;;;;;;;23.76;56.93;98507.00;7683582;32;40118;-83
2023/08/29 18:42:52;;;;;;;9.30;3.70;;;;;;;23.62;57.04;98513.31;7700925;32;40748;-83
2023/08/29 18:47:09;;;;;;;10.18;3.87;;;;;;;23.58;57.19;98529.19;7709524;32;38528;-83
2023/08/29 18:51:26;;;;;;;9.95;3.95;;;;;;;23.58;57.17;98534.75;7711827;32;37051;-83
2023/08/29 18:55:43;;;;;;;5.72;3.50;;;;;;;23.53;57.29;98551.81;7708270;32;39991;-83
2023/08/29 19:00:00;;;;;;;6.93;3.55;;;;;;;23.35;58.14;98575.94;7711724;32;40843;-82
2023/08/29 19:04:16;;;;;;;9.98;3.85;;;;;;;23.26;58.67;98567.94;7711686;32;37602;-85
2023/08/29 19:08:33;;;;;;;10.32;4.82;;;;;;;23.20;59.64;98559.16;7688021;32;37158;-84
2023/08/29 19:12:50;;;;;;;11.15;4.28;;;;;;;22.95;61.22;98574.81;7700521;32;39358;-82
2023/08/29 19:17:08;;;;;;;9.23;3.87;;;;;;;22.95;60.99;98591.50;7694802;32;39655;-83
2023/08/29 19:21:25;;;;;;;11.07;4.47;;;;;;;23.06;60.34;98572.97;7697868;32;37743;-83
2023/08/29 19:25:41;;;;;;;11.07;3.95;;;;;;;23.01;60.98;98573.28;7696715;32;37931;-84
2023/08/29 19:29:59;;;;;;;9.70;4.72;;;;;;;23.03;60.82;98562.59;7697126;32;39989;-83
2023/08/29 19:34:17;;;;;;;8.70;3.60;;;;;;;22.97;61.21;98578.00;7697224;32;39916;-83
2023/08/29 19:38:34;;;;;;;9.10;4.35;;;;;;;22.91;61.26;98596.22;7695320;32;37028;-82
2023/08/29 19:42:51;;;;;;;11.55;4.70;;;;;;;22.66;62.59;98616.22;7695803;32;36706;-84
2023/08/29 19:47:08;;;;;;;7.57;3.87;;;;;;;21.24;68.78;98631.38;7693321;32;40579;-84
2023/08/29 19:51:25;;;;;;;6.50;2.60;;;;;;;21.28;67.72;98642.53;7696851;32;39997;-84
2023/08/29 19:55:41;;;;;;;2.40;1.65;;;;;;;21.05;65.76;98640.56;7694672;32;37883;-84
2023/08/29 19:59:58;;;;;;;6.07;1.58;;;;;;;20.38;65.54;98640.91;7684193;32;36935;-82
2023/08/29 20:04:14;;;;;;;1.58;1.15;;;;;;;20.77;63.39;98638.91;7708929;32;39098;-83